createdAt,value
2023-01-10T00:02:25.662Z,8.20
2023-01-10T00:07:27.448Z,7.00
2023-01-10T00:12:47.784Z,8.80
2023-01-10T00:28:01.856Z,6.90
2023-01-10T00:38:07.470Z,7.00
2023-01-10T00:43:29.272Z,6.90
2023-01-10T00:48:31.203Z,6.90
2023-01-10T00:53:32.998Z,6.80
2023-01-10T00:58:34.762Z,6.70
2023-01-10T01:08:38.782Z,6.90
2023-01-10T01:18:42.741Z,6.70
2023-01-10T01:23:44.710Z,6.80
2023-01-10T01:28:46.454Z,8.30
2023-01-10T01:33:48.187Z,7.10
2023-01-10T01:44:05.543Z,7.00
2023-01-10T01:49:15.657Z,6.90
2023-01-10T01:54:19.277Z,7.00
2023-01-10T01:59:26.133Z,7.10
2023-01-10T02:04:32.163Z,7.10
2023-01-10T02:09:41.276Z,7.10
2023-01-10T02:14:49.392Z,8.50
2023-01-10T02:20:03.462Z,7.20
2023-01-10T02:25:26.293Z,6.80
2023-01-10T02:31:07.005Z,6.80
2023-01-10T02:36:23.555Z,6.90
2023-01-10T02:41:42.243Z,7.00
2023-01-10T02:46:46.732Z,7.00
2023-01-10T02:51:48.615Z,7.10
2023-01-10T02:57:39.802Z,7.10
2023-01-10T03:03:01.286Z,7.10
2023-01-10T03:08:06.137Z,6.60
2023-01-10T03:13:14.784Z,6.60
2023-01-10T03:18:23.692Z,6.70
2023-01-10T03:23:26.816Z,6.80
2023-01-10T03:28:38.494Z,6.80
2023-01-10T03:38:51.523Z,6.60
2023-01-10T03:44:35.524Z,6.80
2023-01-10T03:49:41.424Z,6.70
2023-01-10T03:54:47.563Z,6.40
2023-01-10T03:59:55.180Z,8.70
2023-01-10T04:04:57.855Z,6.60
2023-01-10T04:09:59.659Z,6.80
2023-01-10T04:20:05.231Z,6.60
2023-01-10T04:25:07.501Z,6.70
2023-01-10T04:30:10.204Z,6.60
2023-01-10T04:35:12.004Z,6.60
2023-01-10T04:40:17.129Z,6.60
2023-01-10T04:55:25.297Z,6.60
2023-01-10T05:05:30.679Z,6.40
2023-01-10T05:10:32.431Z,8.00
2023-01-10T05:15:34.352Z,6.50
2023-01-10T05:20:36.230Z,6.20
2023-01-10T05:25:38.071Z,7.30
2023-01-10T05:30:39.900Z,7.10
2023-01-10T05:40:43.843Z,6.50
2023-01-10T05:45:45.663Z,6.30
2023-01-10T05:50:49.056Z,6.60
2023-01-10T05:55:55.500Z,6.50
2023-01-10T06:00:58.638Z,9.10
2023-01-10T06:16:05.625Z,6.40
2023-01-10T06:21:07.439Z,6.40
2023-01-10T06:26:09.478Z,6.30
2023-01-10T06:31:11.400Z,6.30
2023-01-10T06:36:13.215Z,7.60
2023-01-10T06:41:15.055Z,8.40
2023-01-10T06:46:19.592Z,6.30
2023-01-10T06:51:21.570Z,6.30
2023-01-10T07:06:28.003Z,7.60
2023-01-10T07:11:29.821Z,8.20
2023-01-10T07:21:33.867Z,6.30
2023-01-10T07:26:36.179Z,6.30
2023-01-10T07:31:38.076Z,6.20
2023-01-10T07:36:39.961Z,7.90
2023-01-10T07:41:41.806Z,6.50
2023-01-10T07:46:43.692Z,8.00
2023-01-10T08:01:51.421Z,6.30
2023-01-10T08:06:55.326Z,6.60
2023-01-10T08:16:59.565Z,6.60
2023-01-10T08:22:03.126Z,6.60
2023-01-10T08:32:08.347Z,6.70
2023-01-10T08:37:14.103Z,6.70
2023-01-10T08:42:17.019Z,7.30
2023-01-10T08:52:20.971Z,6.80
2023-01-10T09:02:24.864Z,6.70
2023-01-10T09:12:47.843Z,6.90
2023-01-10T09:17:52.825Z,6.90
2023-01-10T09:22:54.777Z,7.10
2023-01-10T09:28:01.240Z,6.60
2023-01-10T09:33:04.470Z,7.00
2023-01-10T09:38:10.117Z,6.90
2023-01-10T09:43:11.884Z,6.80
2023-01-10T09:48:26.433Z,6.90
2023-01-10T09:53:30.745Z,7.30
2023-01-10T09:58:34.563Z,7.30
2023-01-10T10:04:08.769Z,7.40
2023-01-10T10:09:15.247Z,7.50
2023-01-10T10:14:32.720Z,7.90
2023-01-10T10:19:55.892Z,7.60
2023-01-10T10:25:09.331Z,7.60
2023-01-10T10:30:31.414Z,7.60
2023-01-10T10:35:36.073Z,7.30
2023-01-10T10:40:40.779Z,7.20
2023-01-10T10:45:47.632Z,7.40
2023-01-10T10:50:57.277Z,7.30
2023-01-10T10:56:00.691Z,7.40
2023-01-10T11:06:07.067Z,7.40
2023-01-10T11:11:21.503Z,6.70
2023-01-10T11:16:31.161Z,6.70
2023-01-10T11:21:33.067Z,8.10
2023-01-10T11:26:40.595Z,7.20
2023-01-10T11:31:42.734Z,7.30
2023-01-10T11:37:02.973Z,7.00
2023-01-10T11:42:24.642Z,6.80
2023-01-10T11:47:29.813Z,6.90
2023-01-10T11:52:31.906Z,7.90
2023-01-10T11:57:34.097Z,7.10
2023-01-10T12:02:40.146Z,7.20
2023-01-10T12:07:59.201Z,7.70
2023-01-10T12:13:15.422Z,7.80
2023-01-10T12:18:18.629Z,8.50
2023-01-10T12:23:24.003Z,9.40
2023-01-10T12:28:29.015Z,11.70
2023-01-10T12:33:40.488Z,13.10
2023-01-10T12:39:05.876Z,13.50
2023-01-10T12:44:18.183Z,11.10
2023-01-10T12:49:38.117Z,12.00
2023-01-10T12:54:40.028Z,12.00
2023-01-10T12:59:44.941Z,11.80
2023-01-10T13:05:01.297Z,11.90
2023-01-10T13:10:05.676Z,9.50
2023-01-10T13:15:19.982Z,8.60
2023-01-10T13:25:27.670Z,8.20
2023-01-10T13:30:42.173Z,7.90
2023-01-10T13:35:44.875Z,7.50
2023-01-10T13:41:08.401Z,7.40
2023-01-10T13:46:19.279Z,7.50
2023-01-10T13:51:22.720Z,7.70
2023-01-10T13:56:41.251Z,7.60
2023-01-10T14:02:02.793Z,6.80
2023-01-10T14:07:14.464Z,7.90
2023-01-10T14:12:28.876Z,7.90
2023-01-10T14:17:33.058Z,7.70
2023-01-10T14:22:38.249Z,7.90
2023-01-10T14:27:46.039Z,7.90
2023-01-10T14:32:51.299Z,8.10
2023-01-10T14:37:59.107Z,9.50
2023-01-10T14:43:06.734Z,9.50
2023-01-10T14:48:23.868Z,11.50
2023-01-10T14:53:30.449Z,12.60
2023-01-10T14:58:32.455Z,12.00
2023-01-10T15:03:34.212Z,10.10
2023-01-10T15:08:36.321Z,9.50
2023-01-10T15:13:53.777Z,9.00
2023-01-10T15:18:56.722Z,8.50
2023-01-10T15:23:58.576Z,8.10
2023-01-10T15:29:14.709Z,7.80
2023-01-10T15:34:19.913Z,7.50
2023-01-10T15:39:24.147Z,7.40
2023-01-10T15:44:36.818Z,7.20
2023-01-10T15:49:38.920Z,7.00
2023-01-10T15:54:44.315Z,7.00
2023-01-10T15:59:52.585Z,6.90
2023-01-10T16:04:57.038Z,6.80
2023-01-10T16:10:06.358Z,6.90
2023-01-10T16:15:25.670Z,6.80
2023-01-10T16:20:47.636Z,6.80
2023-01-10T16:26:01.583Z,6.80
2023-01-10T16:31:06.775Z,6.70
2023-01-10T16:36:17.166Z,6.70
2023-01-10T16:41:37.579Z,6.70
2023-01-10T16:46:39.362Z,9.70
2023-01-10T16:51:41.410Z,9.00
2023-01-10T17:01:54.275Z,6.40
2023-01-10T17:12:05.202Z,6.10
2023-01-10T17:17:06.929Z,6.10
2023-01-10T17:27:11.025Z,6.00
2023-01-10T17:32:12.999Z,5.90
2023-01-10T17:37:14.856Z,7.00
2023-01-10T17:47:21.038Z,5.80
2023-01-10T17:52:22.951Z,6.30
2023-01-10T18:02:27.254Z,5.80
2023-01-10T18:07:29.186Z,5.90
2023-01-10T18:12:30.985Z,6.10
2023-01-10T18:17:32.793Z,6.70
2023-01-10T18:23:04.999Z,6.30
2023-01-10T18:28:06.884Z,5.80
2023-01-10T18:33:08.767Z,9.50
2023-01-10T18:38:10.864Z,5.70
2023-01-10T18:53:20.611Z,5.90
2023-01-10T18:58:27.691Z,8.10
2023-01-10T19:08:32.107Z,6.30
2023-01-10T19:13:34.777Z,6.60
2023-01-10T19:18:36.672Z,5.80
2023-01-10T19:23:38.609Z,5.80
2023-01-10T19:28:40.659Z,7.10
2023-01-10T19:38:45.950Z,6.50
2023-01-10T19:43:47.816Z,6.60
2023-01-10T19:48:49.629Z,6.70
2023-01-10T19:53:51.395Z,7.90
2023-01-10T19:58:54.491Z,6.80
2023-01-10T20:03:58.156Z,6.70
2023-01-10T20:14:02.103Z,6.50
2023-01-10T20:24:17.612Z,6.40
2023-01-10T20:29:20.362Z,6.30
2023-01-10T20:39:25.903Z,5.00
2023-01-10T20:44:28.289Z,6.60
2023-01-10T20:54:32.224Z,6.20
2023-01-10T20:59:33.999Z,6.20
2023-01-10T21:09:38.103Z,6.30
2023-01-10T21:24:44.445Z,6.30
2023-01-10T21:29:46.303Z,8.20
2023-01-10T21:34:48.063Z,6.60
2023-01-10T21:39:49.783Z,6.70
2023-01-10T21:44:51.670Z,6.70
2023-01-10T21:49:53.437Z,7.50
2023-01-10T21:54:55.197Z,6.70
2023-01-10T21:59:57.364Z,9.20
2023-01-10T22:04:59.192Z,7.00
2023-01-10T22:10:01.051Z,7.00
2023-01-10T22:20:05.919Z,6.90
2023-01-10T22:25:08.320Z,6.50
2023-01-10T22:30:10.820Z,6.60
2023-01-10T22:35:14.644Z,6.70
2023-01-10T22:40:16.813Z,6.50
2023-01-10T22:45:18.817Z,6.30
2023-01-10T22:50:20.557Z,8.50
2023-01-10T22:55:22.327Z,6.30
2023-01-10T23:00:24.163Z,6.50
2023-01-10T23:05:28.775Z,6.50
2023-01-10T23:15:33.922Z,6.60
2023-01-10T23:20:35.770Z,6.60
2023-01-10T23:25:37.576Z,6.80
2023-01-10T23:30:39.387Z,6.80
2023-01-10T23:35:41.141Z,6.90
2023-01-10T23:40:43.727Z,7.30
2023-01-10T23:45:45.650Z,6.90
2023-01-10T23:50:51.575Z,6.90
2023-01-10T23:55:53.543Z,6.90
